Time;durP1;ratioP1;P1;durP2;ratioP2;P2;SDS_P1;SDS_P2;PMS_P1;PMS_P2;Temp;Humidity;BMP_temperature;BMP_pressure;BME280_temperature;BME280_humidity;BME280_pressure;Samples;Min_cycle;Max_cycle;Signal;HPM_P1;HPM_P2
2023/08/15 00:00:29;;;;;;;7.60;3.83;;;;;;;-148.15;100.00;61821.78;4975966;28;20073;-91
2023/08/15 00:02:54;;;;;;;11.70;3.80;;;;;;;-148.15;100.00;61821.78;4975610;28;20027;-91
2023/08/15 00:05:19;;;;;;;6.30;3.37;;;;;;;-148.15;100.00;61821.78;4976207;28;20294;-91
2023/08/15 00:07:45;;;;;;;6.70;3.60;;;;;;;-148.15;100.00;61821.78;4976986;28;20027;-91
2023/08/15 00:10:10;;;;;;;6.77;3.33;;;;;;;-148.15;100.00;61821.78;4974865;28;20046;-91
2023/08/15 00:12:35;;;;;;;8.00;3.50;;;;;;;-148.15;100.00;61821.78;4971349;28;20035;-91
2023/08/15 00:15:01;;;;;;;9.03;3.90;;;;;;;-148.15;100.00;61821.78;4989916;28;20066;-92
2023/08/15 00:17:26;;;;;;;7.00;3.77;;;;;;;-148.15;100.00;61821.78;4994562;28;20281;-91
2023/08/15 00:19:51;;;;;;;7.40;3.53;;;;;;;-148.15;100.00;61821.78;4994798;28;20031;-92
2023/08/15 00:22:17;;;;;;;8.57;3.67;;;;;;;-148.15;100.00;61821.78;4994745;28;20641;-91
2023/08/15 00:24:43;;;;;;;5.80;3.85;;;;;;;-148.15;100.00;61821.78;5015137;28;20030;-93
2023/08/15 00:27:08;;;;;;;11.07;3.75;;;;;;;-148.15;100.00;61821.78;4997143;28;20034;-92
2023/08/15 00:29:34;;;;;;;8.50;3.53;;;;;;;-148.15;100.00;61821.78;4999279;28;20010;-91
2023/08/15 00:31:59;;;;;;;9.37;3.90;;;;;;;-148.15;100.00;61821.78;5010823;28;20027;-92
2023/08/15 00:34:24;;;;;;;8.73;4.07;;;;;;;-148.15;100.00;61821.78;4994689;28;20513;-91
2023/08/15 00:36:50;;;;;;;6.07;3.67;;;;;;;-148.15;100.00;61821.78;4974855;28;20065;-91
2023/08/15 00:39:15;;;;;;;7.70;3.63;;;;;;;-148.15;100.00;61821.78;4974713;28;20019;-91
2023/08/15 00:41:40;;;;;;;8.53;3.90;;;;;;;-148.15;100.00;61821.78;4991503;28;20420;-91
2023/08/15 00:44:06;;;;;;;9.60;3.60;;;;;;;-148.15;100.00;61821.78;4994774;28;20109;-90
2023/08/15 00:46:31;;;;;;;7.37;3.90;;;;;;;-148.15;100.00;61821.78;4992248;28;20406;-91
2023/08/15 00:48:57;;;;;;;4.83;3.80;;;;;;;-148.15;100.00;61821.78;4993983;28;20018;-91
2023/08/15 00:51:23;;;;;;;5.80;3.80;;;;;;;-148.15;100.00;61821.78;4994124;28;20096;-90
2023/08/15 00:53:49;;;;;;;5.85;3.72;;;;;;;-148.15;100.00;61821.78;4994426;28;20031;-90
2023/08/15 00:56:15;;;;;;;9.85;3.80;;;;;;;-148.15;100.00;61821.78;4992967;28;20069;-92
2023/08/15 00:58:42;;;;;;;9.00;3.70;;;;;;;-148.15;100.00;61821.78;4974330;28;20035;-92
2023/08/15 01:01:11;;;;;;;6.90;3.63;;;;;;;-148.15;100.00;61821.78;4974364;28;20368;-91
2023/08/15 01:03:37;;;;;;;7.43;3.72;;;;;;;-148.15;100.00;61821.78;4980003;28;20030;-91
2023/08/15 01:06:03;;;;;;;9.65;3.88;;;;;;;-148.15;100.00;61821.78;4993622;28;20033;-91
2023/08/15 01:08:28;;;;;;;6.73;3.30;;;;;;;-148.15;100.00;61821.78;4995020;28;20030;-91
2023/08/15 01:10:54;;;;;;;8.10;3.97;;;;;;;-148.15;100.00;61821.78;4994640;28;20303;-91
2023/08/15 01:13:35;;;;;;;8.52;4.05;;;;;;;-148.15;100.00;61821.78;4995708;28;20172;-92
2023/08/15 01:16:04;;;;;;;8.83;3.97;;;;;;;-148.15;100.00;61821.78;4994935;28;20109;-91
2023/08/15 01:18:34;;;;;;;8.60;3.93;;;;;;;-148.15;100.00;61821.78;4994752;28;20783;-91
2023/08/15 01:21:01;;;;;;;10.93;4.05;;;;;;;-148.15;100.00;61821.78;4987622;28;20030;-92
2023/08/15 01:23:44;;;;;;;10.23;3.83;;;;;;;-148.15;100.00;61821.78;4993894;28;20030;-92
2023/08/15 01:26:12;;;;;;;12.35;4.13;;;;;;;-148.15;100.00;61821.78;4974561;28;20604;-92
2023/08/15 01:28:40;;;;;;;10.15;4.03;;;;;;;-148.15;100.00;61821.78;4975168;28;20478;-91
2023/08/15 01:31:18;;;;;;;9.50;3.80;;;;;;;-148.15;100.00;61821.78;4975621;28;20027;-92
2023/08/15 01:34:13;;;;;;;12.90;3.80;;;;;;;-148.15;100.00;61821.78;4975147;28;20027;-91
2023/08/15 01:36:46;;;;;;;8.60;3.75;;;;;;;-148.15;100.00;61821.78;4953133;28;20541;-91
2023/08/15 01:39:17;;;;;;;9.00;3.63;;;;;;;-148.15;100.00;61821.78;4958151;28;20031;-91
2023/08/15 01:41:46;;;;;;;8.90;3.60;;;;;;;-148.15;100.00;61821.78;4977520;28;20428;-90
2023/08/15 01:44:14;;;;;;;9.07;3.50;;;;;;;-148.15;100.00;61821.78;4989319;28;20296;-91
2023/08/15 01:46:40;;;;;;;10.05;3.50;;;;;;;-148.15;100.00;61821.78;4975837;28;20106;-90
2023/08/15 01:49:05;;;;;;;10.57;2.83;;;;;;;-148.15;100.00;61821.78;4985334;28;20057;-91
2023/08/15 01:51:30;;;;;;;9.13;2.97;;;;;;;-148.15;100.00;61821.78;4985505;28;20030;-90
2023/08/15 01:53:56;;;;;;;5.33;2.70;;;;;;;-148.15;100.00;61821.78;4981536;28;20371;-91
2023/08/15 01:56:23;;;;;;;8.37;3.00;;;;;;;-148.15;100.00;61821.78;4996272;28;20030;-91
2023/08/15 01:58:49;;;;;;;7.10;3.05;;;;;;;-148.15;100.00;61821.78;4996310;28;20030;-91
2023/08/15 02:01:14;;;;;;;12.83;2.90;;;;;;;-148.15;100.00;61821.78;4996016;28;20037;-90
2023/08/15 02:03:40;;;;;;;9.47;2.90;;;;;;;-148.15;100.00;61821.78;4995578;28;20393;-91
2023/08/15 02:06:05;;;;;;;8.63;2.50;;;;;;;-148.15;100.00;61821.78;5002175;28;20284;-91
2023/08/15 02:08:30;;;;;;;8.83;3.03;;;;;;;-148.15;100.00;61821.78;5018281;28;20024;-91
2023/08/15 02:10:55;;;;;;;9.33;2.70;;;;;;;-148.15;100.00;61821.78;5010305;28;20082;-90
2023/08/15 02:13:21;;;;;;;8.30;2.92;;;;;;;-148.15;100.00;61821.78;4998684;28;20029;-91
2023/08/15 02:15:46;;;;;;;8.43;2.70;;;;;;;-148.15;100.00;61821.78;4994226;28;20083;-91
2023/08/15 02:18:12;;;;;;;6.50;2.53;;;;;;;-148.15;100.00;61821.78;4978807;28;20037;-91
2023/08/15 02:20:37;;;;;;;7.57;2.47;;;;;;;-148.15;100.00;61821.78;5006270;28;20130;-91
2023/08/15 02:23:03;;;;;;;8.70;2.67;;;;;;;-148.15;100.00;61821.78;5000863;28;20030;-92
2023/08/15 02:25:31;;;;;;;8.70;2.70;;;;;;;-148.15;100.00;61821.78;4994005;28;20026;-91
2023/08/15 02:27:57;;;;;;;9.20;2.85;;;;;;;-148.15;100.00;61821.78;4974664;28;20054;-91
2023/08/15 02:30:22;;;;;;;8.30;2.80;;;;;;;-148.15;100.00;61821.78;4997560;28;20026;-91
2023/08/15 02:32:47;;;;;;;7.30;2.50;;;;;;;-148.15;100.00;61821.78;4996877;28;20025;-91
2023/08/15 02:35:13;;;;;;;7.43;2.70;;;;;;;-148.15;100.00;61821.78;4991863;28;20033;-90
2023/08/15 02:37:39;;;;;;;11.30;3.03;;;;;;;-148.15;100.00;61821.78;4995259;28;20023;-91
2023/08/15 02:40:06;;;;;;;10.77;3.20;;;;;;;-148.15;100.00;61821.78;4996256;28;20015;-90
2023/08/15 02:42:32;;;;;;;8.20;2.80;;;;;;;-148.15;100.00;61821.78;4986242;28;20023;-90
2023/08/15 02:44:57;;;;;;;6.07;2.30;;;;;;;-148.15;100.00;61821.78;4989792;28;20030;-91
2023/08/15 02:47:22;;;;;;;11.20;3.20;;;;;;;-148.15;100.00;61821.78;4993355;28;20538;-90
2023/08/15 02:49:48;;;;;;;9.03;3.17;;;;;;;-148.15;100.00;61821.78;4991026;28;20543;-91
2023/08/15 02:52:13;;;;;;;10.90;3.20;;;;;;;-148.15;100.00;61821.78;4956742;28;20123;-90
2023/08/15 02:54:38;;;;;;;6.77;2.43;;;;;;;-148.15;100.00;61821.78;4974321;28;20382;-90
2023/08/15 02:57:04;;;;;;;15.23;3.37;;;;;;;-148.15;100.00;61821.78;4974861;28;20069;-91
2023/08/15 02:59:29;;;;;;;6.50;2.40;;;;;;;-148.15;100.00;61821.78;4974934;28;20101;-91
2023/08/15 03:01:54;;;;;;;7.93;2.97;;;;;;;-148.15;100.00;61821.78;5004879;28;20077;-90
2023/08/15 03:04:24;;;;;;;7.10;2.70;;;;;;;-148.15;100.00;61821.78;4999528;28;20466;-91
2023/08/15 03:06:49;;;;;;;10.35;3.28;;;;;;;-148.15;100.00;61821.78;4994613;28;20026;-91
2023/08/15 03:09:16;;;;;;;10.10;2.93;;;;;;;-148.15;100.00;61821.78;5006171;28;20027;-91
2023/08/15 03:11:42;;;;;;;9.90;3.22;;;;;;;-148.15;100.00;61821.78;4997812;28;20022;-90
2023/08/15 03:14:07;;;;;;;10.13;3.00;;;;;;;-148.15;100.00;61821.78;5009140;28;20037;-91
2023/08/15 03:16:32;;;;;;;8.43;3.10;;;;;;;-148.15;100.00;61821.78;5011186;28;20023;-92
2023/08/15 03:18:58;;;;;;;12.80;3.20;;;;;;;-148.15;100.00;61821.78;4998165;28;20278;-91
2023/08/15 03:21:24;;;;;;;8.13;2.90;;;;;;;-148.15;100.00;61821.78;5015522;28;20025;-91
2023/08/15 03:23:50;;;;;;;7.68;3.35;;;;;;;-148.15;100.00;61821.78;5017364;28;20053;-91
2023/08/15 03:26:15;;;;;;;8.47;3.07;;;;;;;-148.15;100.00;61821.78;5017427;28;20030;-90
2023/08/15 03:28:40;;;;;;;10.03;3.10;;;;;;;-148.15;100.00;61821.78;5016815;28;20017;-91
2023/08/15 03:31:08;;;;;;;8.90;3.50;;;;;;;-148.15;100.00;61821.78;5016383;28;20065;-90
2023/08/15 03:33:34;;;;;;;8.82;3.05;;;;;;;-148.15;100.00;61821.78;5015280;28;20037;-91
2023/08/15 03:35:59;;;;;;;7.97;2.83;;;;;;;-148.15;100.00;61821.78;5016219;28;20039;-90
2023/08/15 03:38:25;;;;;;;8.73;2.87;;;;;;;-148.15;100.00;61821.78;5016848;28;20034;-90
2023/08/15 03:41:03;;;;;;;10.68;3.40;;;;;;;-148.15;100.00;61821.78;5016086;28;20018;-89
2023/08/15 03:43:33;;;;;;;9.05;3.50;;;;;;;-148.15;100.00;61821.78;5016575;28;20026;-91
2023/08/15 03:45:59;;;;;;;10.10;3.30;;;;;;;-148.15;100.00;61821.78;5016051;28;20057;-90
2023/08/15 03:48:25;;;;;;;9.67;3.53;;;;;;;-148.15;100.00;61821.78;5018452;28;20281;-91
2023/08/15 03:50:54;;;;;;;14.45;4.10;;;;;;;-148.15;100.00;61821.78;5021317;28;20062;-91
2023/08/15 03:53:20;;;;;;;12.98;3.45;;;;;;;-148.15;100.00;61821.78;5019695;28;20029;-91
2023/08/15 03:55:49;;;;;;;10.10;3.37;;;;;;;-148.15;100.00;61821.78;5001977;28;20030;-91
2023/08/15 03:58:17;;;;;;;11.20;3.38;;;;;;;-148.15;100.00;61821.78;4998448;28;20030;-91
2023/08/15 04:00:43;;;;;;;12.02;3.58;;;;;;;-148.15;100.00;61821.78;4998205;28;20109;-91
2023/08/15 04:03:08;;;;;;;11.65;3.80;;;;;;;-148.15;100.00;61821.78;4998723;28;20061;-90
2023/08/15 04:05:34;;;;;;;9.77;3.53;;;;;;;-148.15;100.00;61821.78;4996371;28;20046;-91
2023/08/15 04:07:59;;;;;;;16.63;4.20;;;;;;;-148.15;100.00;61821.78;4998126;28;20504;-91
2023/08/15 04:10:24;;;;;;;13.13;4.00;;;;;;;-148.15;100.00;61821.78;4997996;28;20035;-91
2023/08/15 04:12:50;;;;;;;13.38;3.83;;;;;;;-148.15;100.00;61821.78;4997498;28;20508;-91
2023/08/15 04:15:15;;;;;;;9.97;3.90;;;;;;;-148.15;100.00;61821.78;4998272;28;20633;-91
2023/08/15 04:17:40;;;;;;;11.43;4.50;;;;;;;-148.15;100.00;61821.78;4997576;28;20057;-91
2023/08/15 04:20:07;;;;;;;13.50;4.47;;;;;;;-148.15;100.00;61821.78;5002682;28;20041;-91
2023/08/15 04:22:37;;;;;;;11.13;4.50;;;;;;;-148.15;100.00;61821.78;5011813;28;20668;-91
2023/08/15 04:25:02;;;;;;;12.15;4.40;;;;;;;-148.15;100.00;61821.78;4999506;28;20041;-91
2023/08/15 04:27:27;;;;;;;12.53;4.73;;;;;;;-148.15;100.00;61821.78;5010347;28;20049;-90
2023/08/15 04:29:55;;;;;;;13.47;4.23;;;;;;;-148.15;100.00;61821.78;5003785;28;20037;-89
2023/08/15 04:32:21;;;;;;;15.10;4.38;;;;;;;-148.15;100.00;61821.78;4999587;28;20045;-91
2023/08/15 04:34:47;;;;;;;11.50;4.30;;;;;;;-148.15;100.00;61821.78;4998522;28;20474;-91
2023/08/15 04:37:12;;;;;;;9.75;4.50;;;;;;;-148.15;100.00;61821.78;4998711;28;20023;-91
2023/08/15 04:39:38;;;;;;;11.00;4.23;;;;;;;-148.15;100.00;61821.78;4997291;28;20034;-90
2023/08/15 04:42:03;;;;;;;16.27;4.70;;;;;;;-148.15;100.00;61821.78;4999074;28;20026;-91
2023/08/15 04:44:29;;;;;;;9.93;4.57;;;;;;;-148.15;100.00;61821.78;4998339;28;20297;-91
2023/08/15 04:46:54;;;;;;;12.40;4.30;;;;;;;-148.15;100.00;61821.78;4998024;28;20034;-90
2023/08/15 04:49:19;;;;;;;13.37;4.60;;;;;;;-148.15;100.00;61821.78;4997589;28;20037;-90
2023/08/15 04:51:44;;;;;;;12.47;4.40;;;;;;;-148.15;100.00;61821.78;4997816;28;20034;-90
2023/08/15 04:54:10;;;;;;;11.07;4.20;;;;;;;-148.15;100.00;61821.78;4998767;28;20026;-91
2023/08/15 04:56:35;;;;;;;11.40;4.10;;;;;;;-148.15;100.00;61821.78;4986784;28;20031;-91
2023/08/15 04:59:00;;;;;;;15.50;5.03;;;;;;;-148.15;100.00;61821.78;4989350;28;20058;-91
2023/08/15 05:01:27;;;;;;;11.03;4.33;;;;;;;-148.15;100.00;61821.78;4987113;28;20026;-90
2023/08/15 05:03:53;;;;;;;8.80;3.95;;;;;;;-148.15;100.00;61821.78;4988573;28;20035;-90
2023/08/15 05:06:18;;;;;;;8.83;3.80;;;;;;;-148.15;100.00;61821.78;4985628;28;20029;-90
2023/08/15 05:08:43;;;;;;;9.27;4.30;;;;;;;-148.15;100.00;61821.78;4981197;28;20023;-90
2023/08/15 05:11:10;;;;;;;12.63;4.13;;;;;;;-148.15;100.00;61821.78;4989829;28;20035;-90
2023/08/15 05:13:35;;;;;;;11.32;4.20;;;;;;;-148.15;100.00;61821.78;5009399;28;20445;-90
2023/08/15 05:16:01;;;;;;;10.90;4.68;;;;;;;-148.15;100.00;61821.78;5003425;28;20026;-90
2023/08/15 05:18:26;;;;;;;10.33;4.60;;;;;;;-148.15;100.00;61821.78;4990949;28;20031;-91
2023/08/15 05:20:51;;;;;;;17.13;4.97;;;;;;;-148.15;100.00;61821.78;4981368;28;20035;-90
2023/08/15 05:23:17;;;;;;;9.07;4.37;;;;;;;-148.15;100.00;61821.78;4979029;28;20430;-90
2023/08/15 05:25:43;;;;;;;11.77;4.53;;;;;;;-148.15;100.00;61821.78;4978932;28;20063;-91
2023/08/15 05:28:10;;;;;;;17.30;4.97;;;;;;;-148.15;100.00;61821.78;4980622;28;20038;-90
2023/08/15 05:30:35;;;;;;;14.45;5.15;;;;;;;-148.15;100.00;61821.78;4994252;28;20462;-91
2023/08/15 05:33:01;;;;;;;13.50;4.83;;;;;;;-148.15;100.00;61821.78;4994394;28;20093;-91
2023/08/15 05:35:27;;;;;;;11.55;5.22;;;;;;;-148.15;100.00;61821.78;4995075;28;20034;-90
2023/08/15 05:37:53;;;;;;;11.77;4.75;;;;;;;-148.15;100.00;61821.78;4976068;28;20110;-90
2023/08/15 05:40:18;;;;;;;14.60;4.80;;;;;;;-148.15;100.00;61821.78;5002261;28;20050;-90
2023/08/15 05:42:44;;;;;;;8.93;4.53;;;;;;;-148.15;100.00;61821.78;4998926;28;20387;-91
2023/08/15 05:45:09;;;;;;;15.03;5.13;;;;;;;-148.15;100.00;61821.78;4993466;28;20038;-91
2023/08/15 05:47:35;;;;;;;11.43;4.10;;;;;;;-148.15;100.00;61821.78;5007172;28;20030;-90
2023/08/15 05:50:01;;;;;;;10.13;4.50;;;;;;;-148.15;100.00;61821.78;4992444;28;20368;-88
2023/08/15 05:52:27;;;;;;;10.73;4.72;;;;;;;-148.15;100.00;61821.78;4995842;28;20026;-87
2023/08/15 05:54:53;;;;;;;9.93;4.43;;;;;;;-148.15;100.00;61821.78;4993146;28;20046;-88
2023/08/15 05:57:19;;;;;;;12.87;4.90;;;;;;;-148.15;100.00;61821.78;4991669;28;20042;-88
2023/08/15 05:59:45;;;;;;;15.93;4.85;;;;;;;-148.15;100.00;61821.78;4990172;28;20040;-88
2023/08/15 06:02:11;;;;;;;16.08;5.47;;;;;;;-148.15;100.00;61821.78;4989688;28;20429;-87
2023/08/15 06:04:36;;;;;;;9.80;4.80;;;;;;;-148.15;100.00;61821.78;4983743;28;20038;-86
2023/08/15 06:07:02;;;;;;;13.77;5.63;;;;;;;-148.15;100.00;61821.78;4974325;28;20607;-87
2023/08/15 06:09:28;;;;;;;11.93;5.00;;;;;;;-148.15;100.00;61821.78;4981316;28;20038;-87
2023/08/15 06:11:53;;;;;;;12.20;4.93;;;;;;;-148.15;100.00;61821.78;4991834;28;20053;-88
2023/08/15 06:14:22;;;;;;;15.87;5.60;;;;;;;-148.15;100.00;61821.78;4992857;28;20065;-89
2023/08/15 06:16:49;;;;;;;10.82;5.03;;;;;;;-148.15;100.00;61821.78;4988669;28;20073;-88
2023/08/15 06:19:15;;;;;;;10.50;5.18;;;;;;;-148.15;100.00;61821.78;4981896;28;20412;-87
2023/08/15 06:21:43;;;;;;;12.07;4.97;;;;;;;-148.15;100.00;61821.78;4990208;28;20027;-87
2023/08/15 06:24:09;;;;;;;14.27;5.77;;;;;;;-148.15;100.00;61821.78;4992278;28;20038;-87
2023/08/15 06:26:35;;;;;;;12.30;5.70;;;;;;;-148.15;100.00;61821.78;4991470;28;20037;-87
2023/08/15 06:29:00;;;;;;;13.73;5.55;;;;;;;-148.15;100.00;61821.78;4991912;28;20022;-88
2023/08/15 06:31:26;;;;;;;11.40;4.80;;;;;;;-148.15;100.00;61821.78;4988323;28;20034;-88
2023/08/15 06:33:51;;;;;;;15.98;5.40;;;;;;;-148.15;100.00;61821.78;4992199;28;20089;-88
2023/08/15 06:36:16;;;;;;;15.83;6.03;;;;;;;-148.15;100.00;61821.78;4976804;28;20027;-87
2023/08/15 06:38:42;;;;;;;11.53;5.40;;;;;;;-148.15;100.00;61821.78;4986422;28;20033;-88
2023/08/15 06:41:07;;;;;;;12.43;5.40;;;;;;;-148.15;100.00;61821.78;4991549;28;20033;-88
2023/08/15 06:43:32;;;;;;;12.97;5.27;;;;;;;-148.15;100.00;61821.78;4995123;28;20018;-89
2023/08/15 06:45:58;;;;;;;15.40;5.80;;;;;;;-148.15;100.00;61821.78;4981959;28;20058;-88
2023/08/15 06:48:23;;;;;;;12.07;4.73;;;;;;;-148.15;100.00;61821.78;4976069;28;20398;-87
2023/08/15 06:50:48;;;;;;;16.73;5.83;;;;;;;-148.15;100.00;61821.78;4990619;28;20038;-88
2023/08/15 06:53:14;;;;;;;14.00;5.33;;;;;;;-148.15;100.00;61821.78;4980462;28;20038;-88
2023/08/15 06:55:39;;;;;;;12.93;5.03;;;;;;;-148.15;100.00;61821.78;4985935;28;20038;-88
2023/08/15 06:58:04;;;;;;;12.17;4.50;;;;;;;-148.15;100.00;61821.78;4988514;28;20086;-88
2023/08/15 07:00:30;;;;;;;10.88;4.90;;;;;;;-148.15;100.00;61821.78;4995476;28;20092;-88
2023/08/15 07:02:55;;;;;;;11.40;4.83;;;;;;;-148.15;100.00;61821.78;4985043;28;20495;-88
2023/08/15 07:05:20;;;;;;;10.93;4.40;;;;;;;-148.15;100.00;61821.78;4979652;28;20438;-88
2023/08/15 07:07:46;;;;;;;14.20;4.27;;;;;;;-148.15;100.00;61821.78;4971371;28;20026;-88
2023/08/15 07:10:11;;;;;;;10.30;4.50;;;;;;;-148.15;100.00;61821.78;4978290;28;20118;-87
2023/08/15 07:12:37;;;;;;;13.45;4.20;;;;;;;-148.15;100.00;61821.78;4983133;28;20027;-89
2023/08/15 07:15:02;;;;;;;15.57;4.97;;;;;;;-148.15;100.00;61821.78;4971010;28;20548;-88
2023/08/15 07:17:28;;;;;;;13.17;4.20;;;;;;;-148.15;100.00;61821.78;4970627;28;20034;-88
2023/08/15 07:19:53;;;;;;;8.75;3.90;;;;;;;-148.15;100.00;61821.78;4971393;28;20097;-88
2023/08/15 07:22:18;;;;;;;11.27;3.90;;;;;;;-148.15;100.00;61821.78;4971807;28;20025;-88
2023/08/15 07:24:44;;;;;;;10.00;3.70;;;;;;;-148.15;100.00;61821.78;4985195;28;20038;-88
2023/08/15 07:27:09;;;;;;;11.60;3.83;;;;;;;-148.15;100.00;61821.78;4990950;28;20096;-88
2023/08/15 07:29:34;;;;;;;10.77;4.00;;;;;;;-148.15;100.00;61821.78;4990595;28;20034;-88
2023/08/15 07:32:00;;;;;;;12.60;3.97;;;;;;;-148.15;100.00;61821.78;4991429;28;20023;-88
2023/08/15 07:34:26;;;;;;;8.60;3.20;;;;;;;-148.15;100.00;61821.78;4991125;28;20492;-89
2023/08/15 07:36:51;;;;;;;13.38;3.50;;;;;;;-148.15;100.00;61821.78;4990540;28;20022;-89
2023/08/15 07:39:18;;;;;;;11.40;3.60;;;;;;;-148.15;100.00;61821.78;4990916;28;20394;-88
2023/08/15 07:41:43;;;;;;;10.52;3.15;;;;;;;-148.15;100.00;61821.78;4989461;28;20038;-88
2023/08/15 07:44:08;;;;;;;9.80;3.30;;;;;;;-148.15;100.00;61821.78;4990584;28;20192;-88
2023/08/15 07:46:34;;;;;;;8.83;2.70;;;;;;;-148.15;100.00;61821.78;4990865;28;20042;-88
2023/08/15 07:48:59;;;;;;;10.27;3.03;;;;;;;-148.15;100.00;61821.78;4990414;28;20034;-88
2023/08/15 07:51:24;;;;;;;8.83;3.10;;;;;;;-148.15;100.00;61821.78;4991141;28;20054;-89
2023/08/15 07:53:50;;;;;;;9.00;2.88;;;;;;;-148.15;100.00;61821.78;4990590;28;20034;-88
2023/08/15 07:56:15;;;;;;;8.57;2.77;;;;;;;-148.15;100.00;61821.78;4990084;28;20039;-88
2023/08/15 07:58:40;;;;;;;13.03;2.97;;;;;;;-148.15;100.00;61821.78;4990299;28;20110;-88
2023/08/15 08:01:06;;;;;;;10.13;3.10;;;;;;;-148.15;100.00;61821.78;4990703;28;20033;-88
2023/08/15 08:03:32;;;;;;;10.87;3.03;;;;;;;-148.15;100.00;61821.78;4990759;28;20023;-88
2023/08/15 08:05:57;;;;;;;12.63;3.00;;;;;;;-148.15;100.00;61821.78;4990244;28;20022;-88
2023/08/15 08:08:22;;;;;;;7.27;2.97;;;;;;;-148.15;100.00;61821.78;4990486;28;20026;-89
2023/08/15 08:10:48;;;;;;;8.38;3.22;;;;;;;-148.15;100.00;61821.78;4990588;28;20033;-89
2023/08/15 08:13:16;;;;;;;9.93;2.50;;;;;;;-148.15;100.00;61821.78;4989065;28;20039;-88
2023/08/15 08:15:42;;;;;;;11.73;3.05;;;;;;;-148.15;100.00;61821.78;4990885;28;20038;-88
2023/08/15 08:18:08;;;;;;;8.67;2.77;;;;;;;-148.15;100.00;61821.78;4978783;28;20098;-88
2023/08/15 08:20:33;;;;;;;9.88;3.35;;;;;;;-148.15;100.00;61821.78;4991308;28;20433;-88
2023/08/15 08:22:58;;;;;;;10.07;3.17;;;;;;;-148.15;100.00;61821.78;4990806;28;20118;-88
2023/08/15 08:25:24;;;;;;;8.17;2.90;;;;;;;-148.15;100.00;61821.78;4992394;28;20684;-88
2023/08/15 08:27:50;;;;;;;11.90;3.28;;;;;;;-148.15;100.00;61821.78;4989810;28;20030;-88
2023/08/15 08:30:17;;;;;;;7.63;3.10;;;;;;;-148.15;100.00;61821.78;4990488;28;20478;-89
2023/08/15 08:32:43;;;;;;;10.13;3.20;;;;;;;-148.15;100.00;61821.78;4990666;28;20018;-89
2023/08/15 08:35:10;;;;;;;7.60;3.08;;;;;;;-148.15;100.00;61821.78;4991379;28;20545;-88
2023/08/15 08:37:36;;;;;;;10.82;3.17;;;;;;;-148.15;100.00;61821.78;4993446;28;20049;-89
2023/08/15 08:40:01;;;;;;;6.57;3.15;;;;;;;-148.15;100.00;61821.78;4994947;28;20482;-89
2023/08/15 08:42:28;;;;;;;13.03;3.97;;;;;;;-148.15;100.00;61821.78;4977065;28;20038;-89
2023/08/15 08:44:55;;;;;;;8.20;3.33;;;;;;;-148.15;100.00;61821.78;4981885;28;20043;-89
2023/08/15 08:47:24;;;;;;;10.15;3.90;;;;;;;-148.15;100.00;61821.78;4963490;28;20641;-88
2023/08/15 08:49:51;;;;;;;11.10;3.72;;;;;;;-148.15;100.00;61821.78;4981617;28;20061;-88
2023/08/15 08:52:16;;;;;;;10.68;3.50;;;;;;;-148.15;100.00;61821.78;4981752;28;20019;-88
2023/08/15 08:54:42;;;;;;;10.70;3.83;;;;;;;-148.15;100.00;61821.78;4958154;28;20061;-88
2023/08/15 08:57:08;;;;;;;7.60;3.30;;;;;;;-148.15;100.00;61821.78;4978059;28;20034;-88
2023/08/15 08:59:36;;;;;;;12.95;3.38;;;;;;;-148.15;100.00;61821.78;4994470;28;20025;-88
2023/08/15 09:02:02;;;;;;;10.45;3.50;;;;;;;-148.15;100.00;61821.78;4993689;28;20116;-88
2023/08/15 09:04:27;;;;;;;12.68;3.30;;;;;;;-148.15;100.00;61821.78;4993997;28;20073;-89
2023/08/15 09:06:53;;;;;;;9.87;2.70;;;;;;;-148.15;100.00;61821.78;4992923;28;20092;-89
2023/08/15 09:14:29;;;;;;;10.90;3.00;;;;;;;-148.15;100.00;61821.78;5070971;23;20058;-89
2023/08/15 09:16:54;;;;;;;11.97;3.20;;;;;;;-148.15;100.00;61821.78;4993094;28;20026;-89
2023/08/15 09:19:20;;;;;;;9.37;3.13;;;;;;;-148.15;100.00;61821.78;4993706;28;20110;-89
2023/08/15 09:21:45;;;;;;;11.03;3.07;;;;;;;-148.15;100.00;61821.78;4993313;28;20030;-89
2023/08/15 09:24:11;;;;;;;8.37;2.80;;;;;;;-148.15;100.00;61821.78;4993783;28;20026;-89
2023/08/15 09:26:37;;;;;;;11.00;3.03;;;;;;;-148.15;100.00;61821.78;4992806;28;20030;-89
2023/08/15 09:29:03;;;;;;;12.10;3.40;;;;;;;-148.15;100.00;61821.78;4993864;28;20022;-89
2023/08/15 09:31:29;;;;;;;10.30;2.77;;;;;;;-148.15;100.00;61821.78;4977720;28;20402;-89
2023/08/15 09:33:55;;;;;;;11.50;3.73;;;;;;;-148.15;100.00;61821.78;4974331;28;20290;-89
2023/08/15 09:36:23;;;;;;;12.75;3.42;;;;;;;-148.15;100.00;61821.78;4975757;28;20081;-88
2023/08/15 09:38:54;;;;;;;8.82;3.20;;;;;;;-148.15;100.00;61821.78;4977302;28;20019;-89
2023/08/15 09:41:24;;;;;;;7.43;2.97;;;;;;;-148.15;100.00;61821.78;4974026;28;20034;-89
2023/08/15 09:43:50;;;;;;;9.18;3.08;;;;;;;-148.15;100.00;61821.78;4975874;28;20034;-89
2023/08/15 09:46:18;;;;;;;8.80;3.30;;;;;;;-148.15;100.00;61821.78;4955406;28;20026;-89
2023/08/15 09:48:48;;;;;;;9.00;3.00;;;;;;;-148.15;100.00;61821.78;4975262;28;20763;-88
2023/08/15 09:51:15;;;;;;;8.85;2.70;;;;;;;-148.15;100.00;61821.78;4974540;28;20034;-89
2023/08/15 09:53:45;;;;;;;11.63;3.13;;;;;;;-148.15;100.00;61821.78;4973662;28;20031;-89
2023/08/15 09:56:11;;;;;;;10.18;3.10;;;;;;;-148.15;100.00;61821.78;4972941;28;20037;-89
2023/08/15 09:58:38;;;;;;;7.90;2.63;;;;;;;-148.15;100.00;61821.78;4973224;28;20027;-88
2023/08/15 10:01:06;;;;;;;7.47;2.45;;;;;;;-148.15;100.00;61821.78;4973105;28;20134;-89
2023/08/15 10:03:36;;;;;;;9.25;2.95;;;;;;;-148.15;100.00;61821.78;4955884;28;20506;-90
2023/08/15 10:06:02;;;;;;;7.30;2.78;;;;;;;-148.15;100.00;61821.78;4955577;28;20031;-89
2023/08/15 10:08:29;;;;;;;8.57;2.30;;;;;;;-148.15;100.00;61821.78;4973594;28;20494;-89
2023/08/15 10:10:57;;;;;;;13.47;3.50;;;;;;;-148.15;100.00;61821.78;4972276;28;20298;-89
2023/08/15 10:13:27;;;;;;;8.52;3.13;;;;;;;-148.15;100.00;61821.78;4955912;28;20062;-89
2023/08/15 10:15:53;;;;;;;6.65;3.03;;;;;;;-148.15;100.00;61821.78;4972703;28;20066;-89
2023/08/15 10:18:19;;;;;;;8.55;3.05;;;;;;;-148.15;100.00;61821.78;4973369;28;20054;-89
2023/08/15 10:20:50;;;;;;;10.50;2.75;;;;;;;-148.15;100.00;61821.78;4972354;28;20043;-89
2023/08/15 10:23:26;;;;;;;11.40;2.90;;;;;;;-148.15;100.00;61821.78;4955780;28;20037;-89
2023/08/15 10:25:52;;;;;;;10.23;2.40;;;;;;;-148.15;100.00;61821.78;4972379;28;20274;-88
2023/08/15 10:28:19;;;;;;;8.70;2.95;;;;;;;-148.15;100.00;61821.78;4956027;28;20505;-89
2023/08/15 10:30:48;;;;;;;10.68;3.13;;;;;;;-148.15;100.00;61821.78;4987947;28;20468;-90
2023/08/15 10:33:16;;;;;;;10.38;2.78;;;;;;;-148.15;100.00;61821.78;4992418;28;20046;-89
2023/08/15 10:36:07;;;;;;;5.97;2.22;;;;;;;-148.15;100.00;61821.78;4991150;28;20092;-89
2023/08/15 10:38:43;;;;;;;5.25;1.90;;;;;;;-148.15;100.00;61821.78;4989769;28;20038;-89
2023/08/15 10:41:19;;;;;;;7.38;2.33;;;;;;;-148.15;100.00;61821.78;4992245;28;20026;-88
2023/08/15 10:43:52;;;;;;;8.48;2.97;;;;;;;-148.15;100.00;61821.78;4992297;28;20030;-88
2023/08/15 10:46:23;;;;;;;7.70;3.08;;;;;;;-148.15;100.00;61821.78;4992108;28;20046;-89
2023/08/15 10:48:50;;;;;;;7.93;2.30;;;;;;;-148.15;100.00;61821.78;4992503;28;20027;-88
2023/08/15 10:51:48;;;;;;;7.30;2.47;;;;;;;-148.15;100.00;61821.78;4992261;28;20305;-89
2023/08/15 10:54:14;;;;;;;8.95;2.35;;;;;;;-148.15;100.00;61821.78;4959611;28;20046;-90
2023/08/15 10:56:42;;;;;;;8.27;2.78;;;;;;;-148.15;100.00;61821.78;4992528;28;20105;-88
2023/08/15 10:59:08;;;;;;;11.57;2.45;;;;;;;-148.15;100.00;61821.78;4995576;28;20027;-88
2023/08/15 11:01:36;;;;;;;8.55;2.70;;;;;;;-148.15;100.00;61821.78;4994054;28;20018;-88
2023/08/15 11:04:03;;;;;;;6.70;2.35;;;;;;;-148.15;100.00;61821.78;4995742;28;20018;-89
2023/08/15 11:06:30;;;;;;;7.10;2.83;;;;;;;-148.15;100.00;61821.78;4996796;28;20495;-88